createdAt,value
2018-05-09T00:00:28.454Z,4.13
2018-05-09T00:02:56.773Z,3.97
2018-05-09T00:05:24.355Z,4.00
2018-05-09T00:07:52.898Z,4.13
2018-05-09T00:10:20.474Z,3.87
2018-05-09T00:12:48.035Z,4.20
2018-05-09T00:15:15.622Z,4.10
2018-05-09T00:17:43.167Z,4.00
2018-05-09T00:20:10.748Z,4.20
2018-05-09T00:22:38.296Z,4.10
2018-05-09T00:25:05.878Z,4.20
2018-05-09T00:27:33.438Z,4.20
2018-05-09T00:30:01.787Z,4.43
2018-05-09T00:32:29.345Z,4.80
2018-05-09T00:34:56.938Z,3.87
2018-05-09T00:37:25.258Z,4.47
2018-05-09T00:39:52.844Z,4.20
2018-05-09T00:42:20.397Z,4.43
2018-05-09T00:44:47.987Z,4.27
2018-05-09T00:47:16.304Z,4.73
2018-05-09T00:49:44.663Z,4.50
2018-05-09T00:52:12.203Z,4.23
2018-05-09T00:54:40.557Z,4.30
2018-05-09T00:57:08.104Z,4.10
2018-05-09T00:59:35.703Z,4.70
2018-05-09T01:02:04.040Z,4.03
2018-05-09T01:04:31.585Z,4.43
2018-05-09T01:06:59.155Z,4.10
2018-05-09T01:09:26.707Z,4.70
2018-05-09T01:11:54.285Z,4.67
2018-05-09T01:14:21.823Z,4.33
2018-05-09T01:16:49.407Z,4.27
2018-05-09T01:19:16.946Z,4.80
2018-05-09T01:21:44.529Z,4.27
2018-05-09T01:24:12.090Z,4.77
2018-05-09T01:26:39.670Z,4.53
2018-05-09T01:29:07.227Z,4.03
2018-05-09T01:31:35.596Z,4.47
2018-05-09T01:34:03.997Z,4.23
2018-05-09T01:36:31.574Z,4.60
2018-05-09T01:38:59.136Z,4.43
2018-05-09T01:41:26.776Z,4.60
2018-05-09T01:43:54.375Z,4.73
2018-05-09T01:46:21.969Z,4.60
2018-05-09T01:48:50.292Z,4.90
2018-05-09T01:51:17.901Z,4.50
2018-05-09T01:53:46.226Z,4.50
2018-05-09T01:56:13.900Z,4.73
2018-05-09T01:58:41.458Z,4.27
2018-05-09T02:01:09.054Z,4.67
2018-05-09T02:03:37.372Z,4.30
2018-05-09T02:06:05.082Z,4.83
2018-05-09T02:08:33.315Z,5.00
2018-05-09T02:11:00.907Z,4.90
2018-05-09T02:13:28.453Z,4.53
2018-05-09T02:15:56.040Z,4.57
2018-05-09T02:18:24.369Z,4.03
2018-05-09T02:20:51.955Z,4.90
2018-05-09T02:23:19.501Z,4.80
2018-05-09T02:25:47.076Z,4.47
2018-05-09T02:28:14.620Z,5.07
2018-05-09T02:30:42.201Z,4.80
2018-05-09T02:33:09.752Z,4.50
2018-05-09T02:35:37.330Z,4.60
2018-05-09T02:38:05.673Z,4.53
2018-05-09T02:40:33.215Z,4.30
2018-05-09T02:43:00.794Z,4.33
2018-05-09T02:45:28.358Z,4.97
2018-05-09T02:47:55.952Z,4.60
2018-05-09T02:50:23.523Z,4.70
2018-05-09T02:52:51.107Z,4.53
2018-05-09T02:55:18.664Z,4.80
2018-05-09T02:57:46.251Z,4.77
2018-05-09T03:00:13.855Z,4.77
2018-05-09T03:02:41.415Z,4.87
2018-05-09T03:05:08.967Z,4.53
2018-05-09T03:07:36.547Z,4.57
2018-05-09T03:10:04.096Z,4.60
2018-05-09T03:12:31.688Z,5.07
2018-05-09T03:14:59.243Z,4.60
2018-05-09T03:17:26.825Z,4.90
2018-05-09T03:19:54.388Z,4.40
2018-05-09T03:22:21.966Z,4.80
2018-05-09T03:24:50.284Z,4.73
2018-05-09T03:27:17.871Z,4.97
2018-05-09T03:29:45.428Z,5.17
2018-05-09T03:32:12.979Z,4.67
2018-05-09T03:34:40.550Z,4.63
2018-05-09T03:37:08.096Z,4.60
2018-05-09T03:39:35.681Z,4.90
2018-05-09T03:42:03.222Z,5.07
2018-05-09T03:44:30.807Z,5.20
2018-05-09T03:46:59.114Z,5.00
2018-05-09T03:49:26.699Z,4.90
2018-05-09T03:51:54.250Z,5.10
2018-05-09T03:54:21.832Z,5.20
2018-05-09T03:56:49.377Z,4.60
2018-05-09T03:59:16.951Z,4.73
2018-05-09T04:01:56.322Z,5.03
2018-05-09T04:04:35.507Z,4.27
2018-05-09T04:07:14.760Z,4.77
2018-05-09T04:09:50.959Z,4.80
2018-05-09T04:12:18.506Z,4.50
2018-05-09T04:14:46.151Z,4.70
2018-05-09T04:17:14.431Z,4.60
2018-05-09T04:19:42.796Z,4.87
2018-05-09T04:22:10.427Z,5.07
2018-05-09T04:24:38.020Z,5.00
2018-05-09T04:27:06.338Z,4.53
2018-05-09T04:29:33.929Z,4.70
2018-05-09T04:32:01.474Z,5.23
2018-05-09T04:34:29.088Z,4.73
2018-05-09T04:36:56.671Z,4.60
2018-05-09T04:39:24.219Z,5.00
2018-05-09T04:41:51.853Z,4.87
2018-05-09T04:44:19.368Z,4.97
2018-05-09T04:46:46.980Z,4.73
2018-05-09T04:49:15.324Z,5.30
2018-05-09T04:51:42.913Z,4.87
2018-05-09T04:54:11.218Z,5.03
2018-05-09T04:56:38.801Z,4.77
2018-05-09T04:59:06.348Z,4.47
2018-05-09T05:01:33.933Z,4.93
2018-05-09T05:04:01.546Z,4.97
2018-05-09T05:06:29.210Z,4.67
2018-05-09T05:08:56.754Z,5.00
2018-05-09T05:11:24.739Z,4.80
2018-05-09T05:13:52.276Z,4.97
2018-05-09T05:16:19.855Z,4.90
2018-05-09T05:18:47.407Z,4.63
2018-05-09T05:21:15.000Z,5.50
2018-05-09T05:23:42.554Z,4.80
2018-05-09T05:26:10.151Z,4.80
2018-05-09T05:28:38.454Z,5.27
2018-05-09T05:31:06.001Z,6.87
2018-05-09T05:33:33.607Z,6.10
2018-05-09T05:36:01.169Z,5.97
2018-05-09T05:38:28.756Z,7.87
2018-05-09T05:40:57.072Z,5.40
2018-05-09T05:43:25.421Z,8.10
2018-05-09T05:45:53.736Z,8.03
2018-05-09T05:48:21.318Z,7.77
2018-05-09T05:50:48.867Z,5.10
2018-05-09T05:53:16.467Z,7.33
2018-05-09T05:55:44.793Z,5.70
2018-05-09T05:58:12.371Z,5.07
2018-05-09T06:00:39.924Z,4.83
2018-05-09T06:03:07.499Z,4.80
2018-05-09T06:05:35.042Z,5.20
2018-05-09T06:08:02.618Z,5.13
2018-05-09T06:10:30.169Z,5.20
2018-05-09T06:12:57.756Z,4.77
2018-05-09T06:15:26.060Z,4.87
2018-05-09T06:17:53.643Z,5.20
2018-05-09T06:20:21.186Z,4.90
2018-05-09T06:22:48.763Z,4.93
2018-05-09T06:25:16.306Z,4.53
2018-05-09T06:27:43.855Z,5.00
2018-05-09T06:30:11.433Z,4.93
2018-05-09T06:32:38.967Z,4.50
2018-05-09T06:35:06.545Z,4.60
2018-05-09T06:37:34.105Z,4.77
2018-05-09T06:40:01.685Z,4.57
2018-05-09T06:42:29.236Z,4.77
2018-05-09T06:44:56.820Z,4.50
2018-05-09T06:47:24.366Z,4.57
2018-05-09T06:49:52.036Z,4.50
2018-05-09T06:52:20.274Z,5.10
2018-05-09T06:54:47.847Z,5.00
2018-05-09T06:57:15.399Z,4.40
2018-05-09T06:59:43.053Z,4.73
2018-05-09T07:02:10.602Z,4.37
2018-05-09T07:04:38.184Z,4.70
2018-05-09T07:07:05.724Z,4.70
2018-05-09T07:09:33.308Z,4.60
2018-05-09T07:12:00.855Z,4.20
2018-05-09T07:14:28.433Z,4.10
2018-05-09T07:16:55.975Z,4.07
2018-05-09T07:19:23.548Z,4.10
2018-05-09T07:21:51.085Z,4.20
2018-05-09T07:24:18.666Z,4.30
2018-05-09T07:26:46.205Z,4.37
2018-05-09T07:29:13.793Z,4.30
2018-05-09T07:31:42.140Z,4.33
2018-05-09T07:34:09.698Z,4.30
2018-05-09T07:36:37.317Z,4.10
2018-05-09T07:39:05.648Z,3.90
2018-05-09T07:41:33.239Z,4.03
2018-05-09T07:44:00.782Z,4.13
2018-05-09T07:46:29.122Z,4.23
2018-05-09T07:48:56.667Z,4.30
2018-05-09T07:51:24.256Z,4.00
2018-05-09T07:53:51.819Z,3.60
2018-05-09T07:56:19.465Z,4.27
2018-05-09T07:58:47.023Z,4.13
2018-05-09T08:01:14.605Z,4.20
2018-05-09T08:03:42.923Z,4.40
2018-05-09T08:06:11.265Z,4.50
2018-05-09T08:08:39.584Z,4.00
2018-05-09T08:11:07.179Z,4.10
2018-05-09T08:13:34.724Z,3.80
2018-05-09T08:16:02.319Z,4.23
2018-05-09T08:18:30.637Z,4.07
2018-05-09T08:20:58.230Z,4.50
2018-05-09T08:23:25.780Z,4.30
2018-05-09T08:25:53.362Z,3.93
2018-05-09T08:28:20.902Z,4.50
2018-05-09T08:30:48.486Z,4.40
2018-05-09T08:33:16.038Z,4.40
2018-05-09T08:35:43.629Z,3.93
2018-05-09T08:38:11.176Z,4.20
2018-05-09T08:40:39.531Z,4.20
2018-05-09T08:43:07.864Z,4.37
2018-05-09T08:45:36.223Z,4.30
2018-05-09T08:48:03.770Z,4.47
2018-05-09T08:50:31.362Z,4.43
2018-05-09T08:52:58.913Z,4.30
2018-05-09T08:55:26.472Z,4.10
2018-05-09T08:57:54.051Z,3.93
2018-05-09T09:00:21.600Z,4.30
2018-05-09T09:02:49.173Z,4.17
2018-05-09T09:05:16.718Z,4.23
2018-05-09T09:07:44.305Z,4.10
2018-05-09T09:10:11.854Z,4.73
2018-05-09T09:12:39.443Z,5.00
2018-05-09T09:15:07.760Z,4.00
2018-05-09T09:17:35.337Z,4.20
2018-05-09T09:20:02.881Z,4.33
2018-05-09T09:22:30.465Z,4.30
2018-05-09T09:24:58.012Z,4.47
2018-05-09T09:27:25.592Z,4.20
2018-05-09T09:29:53.144Z,4.13
2018-05-09T09:32:20.691Z,4.13
2018-05-09T09:34:48.272Z,4.60
2018-05-09T09:37:15.820Z,4.30
2018-05-09T09:39:43.407Z,4.33
2018-05-09T09:42:11.729Z,4.80
2018-05-09T09:44:39.317Z,4.00
2018-05-09T09:47:06.871Z,4.20
2018-05-09T09:49:34.451Z,4.40
2018-05-09T09:52:02.775Z,4.53
2018-05-09T09:54:30.354Z,4.80
2018-05-09T09:56:57.914Z,4.10
2018-05-09T09:59:25.496Z,4.00
2018-05-09T10:01:53.040Z,4.13
2018-05-09T10:04:20.631Z,4.50
2018-05-09T10:06:48.945Z,4.30
2018-05-09T10:09:16.522Z,3.70
2018-05-09T10:11:44.080Z,4.20
2018-05-09T10:14:11.685Z,3.83
2018-05-09T10:16:40.091Z,3.70
2018-05-09T10:19:07.620Z,3.77
2018-05-09T10:21:35.931Z,3.87
2018-05-09T10:24:03.509Z,3.73
2018-05-09T10:26:31.057Z,3.93
2018-05-09T10:28:58.631Z,4.00
2018-05-09T10:31:26.247Z,4.20
2018-05-09T10:33:53.791Z,3.90
2018-05-09T10:36:21.339Z,4.18
2018-05-09T10:38:49.705Z,3.53
2018-05-09T10:41:18.047Z,3.75
2018-05-09T10:43:45.603Z,3.90
2018-05-09T10:46:13.179Z,4.23
2018-05-09T10:48:40.725Z,4.03
2018-05-09T10:51:08.304Z,3.90
2018-05-09T10:53:35.852Z,3.50
2018-05-09T10:56:03.458Z,3.95
2018-05-09T10:58:31.011Z,3.55
2018-05-09T11:00:58.604Z,3.72
2018-05-09T11:03:26.159Z,4.12
2018-05-09T11:05:53.735Z,3.58
2018-05-09T11:08:21.278Z,3.70
2018-05-09T11:10:49.631Z,3.83
2018-05-09T11:13:17.196Z,3.67
2018-05-09T11:15:44.854Z,3.58
2018-05-09T11:18:12.359Z,3.40
2018-05-09T11:20:39.943Z,3.65
2018-05-09T11:23:08.259Z,3.65
2018-05-09T11:25:35.840Z,3.53
2018-05-09T11:28:03.393Z,4.18
2018-05-09T11:30:31.734Z,3.92
2018-05-09T11:32:59.288Z,3.37
2018-05-09T11:35:26.879Z,3.80
2018-05-09T11:37:54.440Z,3.75
2018-05-09T11:40:21.991Z,3.87
2018-05-09T11:42:49.572Z,3.55
2018-05-09T11:45:17.116Z,4.05
2018-05-09T11:47:44.788Z,3.65
2018-05-09T11:50:13.045Z,3.78
2018-05-09T11:52:40.626Z,3.33
2018-05-09T11:55:08.944Z,3.72
2018-05-09T11:57:36.525Z,3.67
2018-05-09T12:00:04.075Z,3.33
2018-05-09T12:02:32.693Z,3.22
2018-05-09T12:05:00.256Z,3.55
2018-05-09T12:07:27.842Z,3.33
2018-05-09T12:09:55.407Z,3.70
2018-05-09T12:12:23.758Z,3.95
2018-05-09T12:14:51.314Z,3.50
2018-05-09T12:17:18.905Z,4.00
2018-05-09T12:19:47.511Z,3.30
2018-05-09T12:22:15.087Z,3.83
2018-05-09T12:24:42.696Z,3.45
2018-05-09T12:27:10.268Z,3.40
2018-05-09T12:29:38.592Z,3.70
2018-05-09T12:32:06.175Z,3.58
2018-05-09T12:34:33.721Z,3.62
2018-05-09T12:37:01.314Z,3.20
2018-05-09T12:39:29.621Z,3.97
2018-05-09T12:41:57.559Z,4.20
2018-05-09T12:44:25.494Z,3.83
2018-05-09T12:46:54.012Z,3.62
2018-05-09T12:49:22.353Z,3.85
2018-05-09T12:51:49.907Z,3.72
2018-05-09T12:54:17.477Z,3.45
2018-05-09T12:56:45.023Z,4.20
2018-05-09T12:59:12.628Z,3.58
2018-05-09T13:01:40.932Z,3.35
2018-05-09T13:04:08.529Z,3.95
2018-05-09T13:06:36.135Z,3.45
2018-05-09T13:09:03.736Z,3.50
2018-05-09T13:11:31.284Z,3.67
2018-05-09T13:13:58.864Z,4.00
2018-05-09T13:16:26.413Z,3.70
2018-05-09T13:18:54.007Z,3.50
2018-05-09T13:21:22.332Z,3.62
2018-05-09T13:23:49.911Z,3.50
2018-05-09T13:26:17.456Z,3.72
2018-05-09T13:28:45.039Z,3.62
2018-05-09T13:31:12.580Z,3.70
2018-05-09T13:33:40.162Z,3.60
2018-05-09T13:36:08.469Z,3.80
2018-05-09T13:38:36.055Z,3.80
2018-05-09T13:41:03.600Z,3.58
2018-05-09T13:43:31.186Z,3.47
2018-05-09T13:45:58.854Z,3.47
2018-05-09T13:48:26.356Z,4.10
2018-05-09T13:50:53.944Z,4.05
2018-05-09T13:53:21.486Z,3.70
2018-05-09T13:55:49.069Z,4.28
2018-05-09T13:58:16.616Z,3.95
2018-05-09T14:00:44.197Z,3.78
2018-05-09T14:03:11.759Z,3.80
2018-05-09T14:05:39.342Z,3.67
2018-05-09T14:08:06.884Z,3.42
2018-05-09T14:10:34.455Z,3.65
2018-05-09T14:13:01.996Z,3.05
2018-05-09T14:15:29.589Z,3.50
2018-05-09T14:17:57.901Z,3.10
2018-05-09T14:20:25.471Z,3.20
2018-05-09T14:22:53.011Z,4.10
2018-05-09T14:25:20.603Z,3.47
2018-05-09T14:27:48.149Z,3.55
2018-05-09T14:30:15.733Z,3.90
2018-05-09T14:32:43.279Z,3.55
2018-05-09T14:35:10.870Z,3.40
2018-05-09T14:37:39.187Z,3.55
2018-05-09T14:40:06.776Z,3.58
2018-05-09T14:42:34.320Z,3.60
2018-05-09T14:45:01.900Z,3.53
2018-05-09T14:47:29.449Z,3.10
2018-05-09T14:49:57.029Z,3.40
2018-05-09T14:52:25.346Z,3.42
2018-05-09T14:54:52.912Z,3.05
2018-05-09T14:57:20.457Z,3.60
2018-05-09T14:59:48.046Z,3.12
2018-05-09T15:02:15.609Z,3.15
2018-05-09T15:04:43.183Z,2.92
2018-05-09T15:07:10.714Z,3.90
2018-05-09T15:09:38.289Z,3.33
2018-05-09T15:12:05.877Z,3.53
2018-05-09T15:14:34.184Z,3.25
2018-05-09T15:17:01.769Z,3.60
2018-05-09T15:19:29.321Z,3.58
2018-05-09T15:21:56.895Z,3.25
2018-05-09T15:24:24.442Z,3.35
2018-05-09T15:26:52.015Z,2.92
2018-05-09T15:29:19.557Z,3.42
2018-05-09T15:31:47.130Z,3.60
2018-05-09T15:34:14.739Z,3.58
2018-05-09T15:36:43.094Z,3.53
2018-05-09T15:39:10.738Z,3.60
2018-05-09T15:41:39.022Z,3.50
2018-05-09T15:44:06.570Z,3.40
2018-05-09T15:46:34.159Z,3.30
2018-05-09T15:49:02.488Z,3.10
2018-05-09T15:51:30.062Z,2.90
2018-05-09T15:53:57.613Z,3.28
2018-05-09T15:56:25.187Z,3.85
2018-05-09T15:58:52.738Z,3.37
2018-05-09T16:01:20.303Z,3.28
2018-05-09T16:03:47.849Z,3.85
2018-05-09T16:06:15.420Z,3.40
2018-05-09T16:08:42.965Z,3.30
2018-05-09T16:11:10.542Z,3.42
2018-05-09T16:13:38.081Z,3.78
2018-05-09T16:16:05.654Z,3.80
2018-05-09T16:18:33.197Z,3.60
2018-05-09T16:21:00.783Z,3.62
2018-05-09T16:23:28.323Z,3.12
2018-05-09T16:25:55.898Z,3.53
2018-05-09T16:28:23.440Z,3.40
2018-05-09T16:30:51.022Z,3.65
2018-05-09T16:33:19.340Z,3.42
2018-05-09T16:35:46.935Z,3.60
2018-05-09T16:38:14.482Z,3.28
2018-05-09T16:40:42.072Z,3.42
2018-05-09T16:43:10.383Z,3.65
2018-05-09T16:45:37.934Z,3.60
2018-05-09T16:48:05.516Z,3.37
2018-05-09T16:50:33.071Z,3.87
2018-05-09T16:53:00.650Z,3.67
2018-05-09T16:55:28.204Z,3.65
2018-05-09T16:57:55.779Z,3.62
2018-05-09T17:00:23.337Z,3.97
2018-05-09T17:02:50.921Z,3.70
2018-05-09T17:05:19.249Z,3.90
2018-05-09T17:07:46.820Z,3.75
2018-05-09T17:10:14.379Z,4.03
2018-05-09T17:12:41.962Z,3.58
2018-05-09T17:15:09.508Z,3.97
2018-05-09T17:17:37.090Z,3.75
2018-05-09T17:20:05.411Z,3.67
2018-05-09T17:22:33.856Z,4.10
2018-05-09T17:25:02.167Z,3.80
2018-05-09T17:27:29.768Z,4.05
2018-05-09T17:29:57.331Z,3.50
2018-05-09T17:32:24.911Z,3.83
2018-05-09T17:34:52.453Z,3.92
2018-05-09T17:37:20.842Z,3.87
2018-05-09T17:39:48.397Z,3.60
2018-05-09T17:42:16.748Z,3.60
2018-05-09T17:44:44.297Z,3.70
2018-05-09T17:47:11.926Z,3.78
2018-05-09T17:49:39.473Z,3.67
2018-05-09T17:52:07.051Z,3.72
2018-05-09T17:54:34.594Z,4.07
2018-05-09T17:57:02.176Z,3.80
2018-05-09T17:59:29.728Z,4.25
2018-05-09T18:01:57.311Z,4.03
2018-05-09T18:04:24.862Z,4.47
2018-05-09T18:06:52.453Z,4.40
2018-05-09T18:09:20.756Z,4.22
2018-05-09T18:11:48.320Z,4.78
2018-05-09T18:14:15.899Z,4.85
2018-05-09T18:16:43.443Z,4.45
2018-05-09T18:19:11.015Z,4.30
2018-05-09T18:21:38.556Z,4.53
2018-05-09T18:24:06.128Z,4.45
2018-05-09T18:26:33.668Z,4.53
2018-05-09T18:29:01.247Z,4.30
2018-05-09T18:31:28.799Z,4.50
2018-05-09T18:33:56.377Z,4.90
2018-05-09T18:36:23.949Z,4.37
2018-05-09T18:38:51.549Z,4.40
2018-05-09T18:41:19.101Z,4.45
2018-05-09T18:43:46.687Z,4.20
2018-05-09T18:46:15.012Z,4.57
2018-05-09T18:48:42.589Z,4.57
2018-05-09T18:51:10.899Z,5.00
2018-05-09T18:53:38.473Z,5.00
2018-05-09T18:56:06.024Z,5.03
2018-05-09T18:58:33.610Z,4.82
2018-05-09T19:01:01.165Z,5.03
2018-05-09T19:03:28.878Z,5.07
2018-05-09T19:05:56.428Z,5.15
2018-05-09T19:08:24.010Z,5.40
2018-05-09T19:10:51.569Z,4.70
2018-05-09T19:13:19.150Z,4.80
2018-05-09T19:15:46.710Z,5.05
2018-05-09T19:18:15.074Z,5.07
2018-05-09T19:20:42.623Z,5.25
2018-05-09T19:23:10.232Z,4.47
2018-05-09T19:25:37.782Z,4.78
2018-05-09T19:28:05.365Z,4.80
2018-05-09T19:30:33.676Z,5.00
2018-05-09T19:33:01.269Z,5.35
2018-05-09T19:35:28.867Z,5.03
2018-05-09T19:37:56.463Z,5.35
2018-05-09T19:40:24.878Z,5.47
2018-05-09T19:42:52.497Z,5.87
2018-05-09T19:45:20.057Z,4.65
2018-05-09T19:47:47.704Z,5.18
2018-05-09T19:50:15.220Z,5.10
2018-05-09T19:52:43.541Z,5.53
2018-05-09T19:55:11.216Z,5.27
2018-05-09T19:57:38.684Z,5.20
2018-05-09T20:00:06.269Z,5.07
2018-05-09T20:02:33.818Z,5.30
2018-05-09T20:05:01.414Z,5.13
2018-05-09T20:07:28.963Z,4.87
2018-05-09T20:09:57.543Z,5.50
2018-05-09T20:12:25.119Z,5.03
2018-05-09T20:14:52.699Z,5.23
2018-05-09T20:17:20.423Z,4.80
2018-05-09T20:19:48.020Z,5.13
2018-05-09T20:22:15.749Z,5.53
2018-05-09T20:24:43.355Z,5.27
2018-05-09T20:27:11.011Z,5.40
2018-05-09T20:29:38.628Z,5.20
2018-05-09T20:32:17.889Z,5.47
2018-05-09T20:34:45.656Z,5.87
2018-05-09T20:37:13.215Z,5.30
2018-05-09T20:39:40.886Z,5.30
2018-05-09T20:42:08.424Z,4.87
2018-05-09T20:44:36.009Z,5.10
2018-05-09T20:47:03.647Z,5.43
2018-05-09T20:49:34.399Z,5.23
2018-05-09T20:52:01.950Z,5.70
2018-05-09T20:54:29.539Z,5.80
2018-05-09T20:56:57.088Z,5.13
2018-05-09T20:59:24.676Z,5.27
2018-05-09T21:01:52.999Z,5.37
2018-05-09T21:04:20.585Z,5.80
2018-05-09T21:06:48.167Z,5.50
2018-05-09T21:09:16.606Z,5.70
2018-05-09T21:11:53.388Z,6.00
2018-05-09T21:14:21.346Z,5.20
2018-05-09T21:16:48.928Z,5.60
2018-05-09T21:19:16.515Z,5.60
2018-05-09T21:21:44.830Z,5.40
2018-05-09T21:24:13.194Z,5.67
2018-05-09T21:26:40.748Z,5.70
2018-05-09T21:29:08.361Z,5.70
2018-05-09T21:31:35.915Z,5.40
2018-05-09T21:34:03.472Z,5.47
2018-05-09T21:36:31.054Z,5.53
2018-05-09T21:38:59.385Z,6.07
2018-05-09T21:41:26.972Z,5.50
2018-05-09T21:43:54.530Z,5.50
2018-05-09T21:46:22.110Z,5.30
2018-05-09T21:48:50.464Z,4.97
2018-05-09T21:51:18.054Z,5.73
2018-05-09T21:53:45.617Z,5.63
2018-05-09T21:56:13.197Z,5.70
2018-05-09T21:58:40.741Z,6.00
2018-05-09T22:01:08.322Z,5.47
2018-05-09T22:03:35.876Z,5.87
2018-05-09T22:06:03.455Z,5.43
2018-05-09T22:08:31.005Z,5.63
2018-05-09T22:10:58.582Z,5.77
2018-05-09T22:13:26.128Z,5.57
2018-05-09T22:15:53.713Z,6.10
2018-05-09T22:18:22.029Z,5.73
2018-05-09T22:20:49.608Z,5.70
2018-05-09T22:23:17.193Z,5.60
2018-05-09T22:25:44.781Z,5.87
2018-05-09T22:28:13.173Z,5.80
2018-05-09T22:30:40.748Z,6.07
2018-05-09T22:33:08.299Z,5.87
2018-05-09T22:35:35.878Z,5.83
2018-05-09T22:38:03.437Z,5.90
2018-05-09T22:40:31.024Z,5.70
2018-05-09T22:42:58.571Z,6.17
2018-05-09T22:45:26.168Z,5.73
2018-05-09T22:47:54.486Z,6.13
2018-05-09T22:50:22.072Z,5.57
2018-05-09T22:52:49.623Z,6.00
2018-05-09T22:55:17.287Z,5.70
2018-05-09T22:57:44.834Z,5.87
2018-05-09T23:00:12.454Z,6.10
2018-05-09T23:02:40.012Z,5.73
2018-05-09T23:05:07.551Z,5.90
2018-05-09T23:07:35.895Z,6.30
2018-05-09T23:10:03.433Z,5.87
2018-05-09T23:12:31.024Z,5.93
2018-05-09T23:14:58.569Z,6.00
2018-05-09T23:17:26.148Z,6.03
2018-05-09T23:19:53.686Z,6.00
2018-05-09T23:22:21.258Z,5.73
2018-05-09T23:24:48.823Z,6.00
2018-05-09T23:27:16.412Z,6.30
2018-05-09T23:29:44.724Z,5.90
2018-05-09T23:32:12.302Z,6.13
2018-05-09T23:34:39.854Z,6.33
2018-05-09T23:37:07.427Z,6.10
2018-05-09T23:39:34.973Z,5.90
2018-05-09T23:42:02.561Z,5.83
2018-05-09T23:44:30.876Z,6.33
2018-05-09T23:46:58.462Z,6.10
2018-05-09T23:49:26.010Z,6.83
2018-05-09T23:51:53.595Z,6.37
2018-05-09T23:54:21.142Z,6.53
2018-05-09T23:56:48.727Z,6.70
2018-05-09T23:59:17.068Z,6.40
